sensor_id;sensor_type;location;lat;lon;timestamp;temperature;humidity
6988;DHT22;3534;49.960;8.018;2023-04-15T00:01:21;9.60;99.90
6988;DHT22;3534;49.960;8.018;2023-04-15T00:03:50;9.50;99.90
6988;DHT22;3534;49.960;8.018;2023-04-15T00:06:18;9.50;99.90
6988;DHT22;3534;49.960;8.018;2023-04-15T00:08:46;9.50;99.90
6988;DHT22;3534;49.960;8.018;2023-04-15T00:11:13;9.50;99.90
6988;DHT22;3534;49.960;8.018;2023-04-15T00:13:40;9.50;99.90
6988;DHT22;3534;49.960;8.018;2023-04-15T00:16:08;9.50;99.90
6988;DHT22;3534;49.960;8.018;2023-04-15T00:18:36;9.50;99.90
6988;DHT22;3534;49.960;8.018;2023-04-15T00:21:02;9.40;99.90
6988;DHT22;3534;49.960;8.018;2023-04-15T00:23:29;9.40;99.90
6988;DHT22;3534;49.960;8.018;2023-04-15T00:25:57;9.30;99.90
6988;DHT22;3534;49.960;8.018;2023-04-15T00:28:24;9.30;99.90
6988;DHT22;3534;49.960;8.018;2023-04-15T00:30:51;9.30;99.90
6988;DHT22;3534;49.960;8.018;2023-04-15T00:33:18;9.20;99.90
6988;DHT22;3534;49.960;8.018;2023-04-15T00:35:45;9.20;99.90
6988;DHT22;3534;49.960;8.018;2023-04-15T00:38:11;9.20;99.90
6988;DHT22;3534;49.960;8.018;2023-04-15T00:40:38;9.20;99.90
6988;DHT22;3534;49.960;8.018;2023-04-15T00:43:07;9.10;99.90
6988;DHT22;3534;49.960;8.018;2023-04-15T00:45:33;9.10;99.90
6988;DHT22;3534;49.960;8.018;2023-04-15T00:48:00;9.10;99.90
6988;DHT22;3534;49.960;8.018;2023-04-15T00:50:27;9.10;99.90
6988;DHT22;3534;49.960;8.018;2023-04-15T00:52:53;9.20;99.90
6988;DHT22;3534;49.960;8.018;2023-04-15T00:55:20;9.10;99.90
6988;DHT22;3534;49.960;8.018;2023-04-15T00:57:47;9.10;99.90
6988;DHT22;3534;49.960;8.018;2023-04-15T01:00:15;9.10;99.90
6988;DHT22;3534;49.960;8.018;2023-04-15T01:02:42;9.00;99.90
6988;DHT22;3534;49.960;8.018;2023-04-15T01:05:09;9.00;99.90
6988;DHT22;3534;49.960;8.018;2023-04-15T01:07:35;9.00;99.90
6988;DHT22;3534;49.960;8.018;2023-04-15T01:10:03;8.90;99.90
6988;DHT22;3534;49.960;8.018;2023-04-15T01:12:31;8.80;99.90
6988;DHT22;3534;49.960;8.018;2023-04-15T01:14:59;8.80;99.90
6988;DHT22;3534;49.960;8.018;2023-04-15T01:17:27;8.80;99.90
6988;DHT22;3534;49.960;8.018;2023-04-15T01:19:55;8.70;99.90
6988;DHT22;3534;49.960;8.018;2023-04-15T01:22:22;8.70;99.90
6988;DHT22;3534;49.960;8.018;2023-04-15T01:24:54;8.60;99.90
6988;DHT22;3534;49.960;8.018;2023-04-15T01:27:24;8.60;99.90
6988;DHT22;3534;49.960;8.018;2023-04-15T01:29:51;8.50;99.90
6988;DHT22;3534;49.960;8.018;2023-04-15T01:32:18;8.50;99.90
6988;DHT22;3534;49.960;8.018;2023-04-15T01:34:45;8.50;99.90
6988;DHT22;3534;49.960;8.018;2023-04-15T01:37:11;8.50;99.90
6988;DHT22;3534;49.960;8.018;2023-04-15T01:39:38;8.50;99.90
6988;DHT22;3534;49.960;8.018;2023-04-15T01:42:05;8.40;99.90
6988;DHT22;3534;49.960;8.018;2023-04-15T01:44:33;8.40;99.90
6988;DHT22;3534;49.960;8.018;2023-04-15T01:47:00;8.30;99.90
6988;DHT22;3534;49.960;8.018;2023-04-15T01:49:27;8.30;99.90
6988;DHT22;3534;49.960;8.018;2023-04-15T01:51:53;8.30;99.90
6988;DHT22;3534;49.960;8.018;2023-04-15T01:54:20;8.20;99.90
6988;DHT22;3534;49.960;8.018;2023-04-15T01:56:47;8.20;99.90
6988;DHT22;3534;49.960;8.018;2023-04-15T01:59:13;8.20;99.90
6988;DHT22;3534;49.960;8.018;2023-04-15T02:01:41;8.20;99.90
6988;DHT22;3534;49.960;8.018;2023-04-15T02:04:09;8.20;99.90
6988;DHT22;3534;49.960;8.018;2023-04-15T02:06:41;8.20;99.90
6988;DHT22;3534;49.960;8.018;2023-04-15T02:09:08;8.20;99.90
6988;DHT22;3534;49.960;8.018;2023-04-15T02:11:35;8.20;99.90
6988;DHT22;3534;49.960;8.018;2023-04-15T02:14:03;8.10;99.90
6988;DHT22;3534;49.960;8.018;2023-04-15T02:16:31;8.10;99.90
6988;DHT22;3534;49.960;8.018;2023-04-15T02:19:00;8.10;99.90
6988;DHT22;3534;49.960;8.018;2023-04-15T02:21:26;8.10;99.90
6988;DHT22;3534;49.960;8.018;2023-04-15T02:23:53;8.10;99.90
6988;DHT22;3534;49.960;8.018;2023-04-15T02:26:20;8.10;99.90
6988;DHT22;3534;49.960;8.018;2023-04-15T02:28:48;8.10;99.90
6988;DHT22;3534;49.960;8.018;2023-04-15T02:31:15;8.20;99.90
6988;DHT22;3534;49.960;8.018;2023-04-15T02:33:42;8.20;99.90
6988;DHT22;3534;49.960;8.018;2023-04-15T02:36:10;8.20;99.90
6988;DHT22;3534;49.960;8.018;2023-04-15T02:38:37;8.20;99.90
6988;DHT22;3534;49.960;8.018;2023-04-15T02:41:05;8.10;99.90
6988;DHT22;3534;49.960;8.018;2023-04-15T02:43:31;8.20;99.90
6988;DHT22;3534;49.960;8.018;2023-04-15T02:45:58;8.10;99.90
6988;DHT22;3534;49.960;8.018;2023-04-15T02:48:25;8.10;99.90
6988;DHT22;3534;49.960;8.018;2023-04-15T02:50:51;8.20;99.90
6988;DHT22;3534;49.960;8.018;2023-04-15T02:53:19;8.10;99.90
6988;DHT22;3534;49.960;8.018;2023-04-15T02:55:46;8.10;99.90
6988;DHT22;3534;49.960;8.018;2023-04-15T02:58:13;8.10;99.90
6988;DHT22;3534;49.960;8.018;2023-04-15T03:00:39;8.10;99.90
6988;DHT22;3534;49.960;8.018;2023-04-15T03:03:06;8.10;99.90
6988;DHT22;3534;49.960;8.018;2023-04-15T03:05:33;8.10;99.90
6988;DHT22;3534;49.960;8.018;2023-04-15T03:08:00;8.10;99.90
6988;DHT22;3534;49.960;8.018;2023-04-15T03:10:28;8.10;99.90
6988;DHT22;3534;49.960;8.018;2023-04-15T03:12:56;8.00;99.90
6988;DHT22;3534;49.960;8.018;2023-04-15T03:15:22;8.00;99.90
6988;DHT22;3534;49.960;8.018;2023-04-15T03:17:49;8.00;99.90
6988;DHT22;3534;49.960;8.018;2023-04-15T03:20:16;7.90;99.90
6988;DHT22;3534;49.960;8.018;2023-04-15T03:22:43;7.90;99.90
6988;DHT22;3534;49.960;8.018;2023-04-15T03:25:09;7.90;99.90
6988;DHT22;3534;49.960;8.018;2023-04-15T03:27:38;7.80;99.90
6988;DHT22;3534;49.960;8.018;2023-04-15T03:30:06;7.80;99.90
6988;DHT22;3534;49.960;8.018;2023-04-15T03:32:33;7.70;99.90
6988;DHT22;3534;49.960;8.018;2023-04-15T03:35:00;7.70;99.90
6988;DHT22;3534;49.960;8.018;2023-04-15T03:37:26;7.70;99.90
6988;DHT22;3534;49.960;8.018;2023-04-15T03:39:53;7.60;99.90
6988;DHT22;3534;49.960;8.018;2023-04-15T03:42:20;7.60;99.90
6988;DHT22;3534;49.960;8.018;2023-04-15T03:44:48;7.60;99.90
6988;DHT22;3534;49.960;8.018;2023-04-15T03:47:14;7.60;99.90
6988;DHT22;3534;49.960;8.018;2023-04-15T03:49:41;7.50;99.90
6988;DHT22;3534;49.960;8.018;2023-04-15T03:52:08;7.50;99.90
6988;DHT22;3534;49.960;8.018;2023-04-15T03:54:35;7.40;99.90
6988;DHT22;3534;49.960;8.018;2023-04-15T03:57:01;7.40;99.90
6988;DHT22;3534;49.960;8.018;2023-04-15T03:59:28;7.40;99.90
6988;DHT22;3534;49.960;8.018;2023-04-15T04:01:56;7.30;99.90
6988;DHT22;3534;49.960;8.018;2023-04-15T04:04:23;7.30;99.90
6988;DHT22;3534;49.960;8.018;2023-04-15T04:06:49;7.20;99.90
6988;DHT22;3534;49.960;8.018;2023-04-15T04:09:16;7.20;99.90
6988;DHT22;3534;49.960;8.018;2023-04-15T04:11:42;7.20;99.90
6988;DHT22;3534;49.960;8.018;2023-04-15T04:14:10;7.10;99.90
6988;DHT22;3534;49.960;8.018;2023-04-15T04:16:36;7.10;99.90
6988;DHT22;3534;49.960;8.018;2023-04-15T04:19:04;7.10;99.90
6988;DHT22;3534;49.960;8.018;2023-04-15T04:21:32;7.10;99.90
6988;DHT22;3534;49.960;8.018;2023-04-15T04:23:59;7.10;99.90
6988;DHT22;3534;49.960;8.018;2023-04-15T04:26:26;7.10;99.90
6988;DHT22;3534;49.960;8.018;2023-04-15T04:28:53;7.10;99.90
6988;DHT22;3534;49.960;8.018;2023-04-15T04:31:19;7.10;99.90
6988;DHT22;3534;49.960;8.018;2023-04-15T04:33:46;7.10;99.90
6988;DHT22;3534;49.960;8.018;2023-04-15T04:36:14;7.10;99.90
6988;DHT22;3534;49.960;8.018;2023-04-15T04:38:41;7.10;99.90
6988;DHT22;3534;49.960;8.018;2023-04-15T04:41:08;7.10;99.90
6988;DHT22;3534;49.960;8.018;2023-04-15T04:43:34;7.10;99.90
6988;DHT22;3534;49.960;8.018;2023-04-15T04:46:01;7.10;99.90
6988;DHT22;3534;49.960;8.018;2023-04-15T04:48:28;7.10;99.90
6988;DHT22;3534;49.960;8.018;2023-04-15T04:50:54;7.10;99.90
6988;DHT22;3534;49.960;8.018;2023-04-15T04:53:22;7.00;99.90
6988;DHT22;3534;49.960;8.018;2023-04-15T04:55:49;7.10;99.90
6988;DHT22;3534;49.960;8.018;2023-04-15T04:58:16;7.00;99.90
6988;DHT22;3534;49.960;8.018;2023-04-15T05:00:43;7.00;99.90
6988;DHT22;3534;49.960;8.018;2023-04-15T05:03:10;7.00;99.90
6988;DHT22;3534;49.960;8.018;2023-04-15T05:05:37;7.00;99.90
6988;DHT22;3534;49.960;8.018;2023-04-15T05:08:05;7.00;99.90
6988;DHT22;3534;49.960;8.018;2023-04-15T05:10:33;6.90;99.90
6988;DHT22;3534;49.960;8.018;2023-04-15T05:13:00;6.90;99.90
6988;DHT22;3534;49.960;8.018;2023-04-15T05:15:27;6.80;99.90
6988;DHT22;3534;49.960;8.018;2023-04-15T05:17:53;6.80;99.90
6988;DHT22;3534;49.960;8.018;2023-04-15T05:20:20;6.80;99.90
6988;DHT22;3534;49.960;8.018;2023-04-15T05:22:46;6.90;99.90
6988;DHT22;3534;49.960;8.018;2023-04-15T05:25:13;6.80;99.90
6988;DHT22;3534;49.960;8.018;2023-04-15T05:27:42;6.90;99.90
6988;DHT22;3534;49.960;8.018;2023-04-15T05:30:09;6.90;99.90
6988;DHT22;3534;49.960;8.018;2023-04-15T05:32:35;6.90;99.90
6988;DHT22;3534;49.960;8.018;2023-04-15T05:35:02;6.90;99.90
6988;DHT22;3534;49.960;8.018;2023-04-15T05:37:29;6.90;99.90
6988;DHT22;3534;49.960;8.018;2023-04-15T05:39:56;6.90;99.90
6988;DHT22;3534;49.960;8.018;2023-04-15T05:42:22;6.90;99.90
6988;DHT22;3534;49.960;8.018;2023-04-15T05:44:50;6.90;99.90
6988;DHT22;3534;49.960;8.018;2023-04-15T05:47:17;6.90;99.90
6988;DHT22;3534;49.960;8.018;2023-04-15T05:49:44;7.00;99.90
6988;DHT22;3534;49.960;8.018;2023-04-15T05:52:10;7.00;99.90
6988;DHT22;3534;49.960;8.018;2023-04-15T05:54:37;7.00;99.90
6988;DHT22;3534;49.960;8.018;2023-04-15T05:57:04;7.00;99.90
6988;DHT22;3534;49.960;8.018;2023-04-15T05:59:30;7.00;99.90
6988;DHT22;3534;49.960;8.018;2023-04-15T06:01:59;7.10;99.90
6988;DHT22;3534;49.960;8.018;2023-04-15T06:04:25;7.10;99.90
6988;DHT22;3534;49.960;8.018;2023-04-15T06:06:52;7.10;99.90
6988;DHT22;3534;49.960;8.018;2023-04-15T06:09:19;7.20;99.90
6988;DHT22;3534;49.960;8.018;2023-04-15T06:11:45;7.20;99.90
6988;DHT22;3534;49.960;8.018;2023-04-15T06:14:12;7.30;99.90
6988;DHT22;3534;49.960;8.018;2023-04-15T06:16:39;7.40;99.90
6988;DHT22;3534;49.960;8.018;2023-04-15T06:19:07;7.50;99.90
6988;DHT22;3534;49.960;8.018;2023-04-15T06:21:33;7.40;99.90
6988;DHT22;3534;49.960;8.018;2023-04-15T06:24:00;7.50;99.90
6988;DHT22;3534;49.960;8.018;2023-04-15T06:26:28;7.50;99.90
6988;DHT22;3534;49.960;8.018;2023-04-15T06:28:55;7.60;99.90
6988;DHT22;3534;49.960;8.018;2023-04-15T06:31:22;7.70;99.90
6988;DHT22;3534;49.960;8.018;2023-04-15T06:33:49;7.80;99.90
6988;DHT22;3534;49.960;8.018;2023-04-15T06:36:17;7.80;99.90
6988;DHT22;3534;49.960;8.018;2023-04-15T06:38:44;7.90;99.90
6988;DHT22;3534;49.960;8.018;2023-04-15T06:41:11;7.90;99.90
6988;DHT22;3534;49.960;8.018;2023-04-15T06:43:38;8.00;99.90
6988;DHT22;3534;49.960;8.018;2023-04-15T06:46:04;8.10;99.90
6988;DHT22;3534;49.960;8.018;2023-04-15T06:48:31;8.20;99.90
6988;DHT22;3534;49.960;8.018;2023-04-15T06:50:58;8.30;99.90
6988;DHT22;3534;49.960;8.018;2023-04-15T06:53:26;8.40;99.90
6988;DHT22;3534;49.960;8.018;2023-04-15T06:55:53;8.40;99.90
6988;DHT22;3534;49.960;8.018;2023-04-15T06:58:20;8.50;99.90
6988;DHT22;3534;49.960;8.018;2023-04-15T07:00:46;8.60;99.90
6988;DHT22;3534;49.960;8.018;2023-04-15T07:03:13;8.60;99.90
6988;DHT22;3534;49.960;8.018;2023-04-15T07:05:40;8.70;99.90
6988;DHT22;3534;49.960;8.018;2023-04-15T07:08:07;8.80;99.90
6988;DHT22;3534;49.960;8.018;2023-04-15T07:10:35;8.80;99.90
6988;DHT22;3534;49.960;8.018;2023-04-15T07:13:03;8.90;99.90
6988;DHT22;3534;49.960;8.018;2023-04-15T07:15:30;8.80;99.90
6988;DHT22;3534;49.960;8.018;2023-04-15T07:17:56;8.80;99.90
6988;DHT22;3534;49.960;8.018;2023-04-15T07:20:23;8.80;99.90
6988;DHT22;3534;49.960;8.018;2023-04-15T07:22:50;8.90;99.90
6988;DHT22;3534;49.960;8.018;2023-04-15T07:25:17;8.80;99.90
6988;DHT22;3534;49.960;8.018;2023-04-15T07:27:45;8.90;99.90
6988;DHT22;3534;49.960;8.018;2023-04-15T07:30:12;8.90;99.90
6988;DHT22;3534;49.960;8.018;2023-04-15T07:32:39;9.00;99.90
6988;DHT22;3534;49.960;8.018;2023-04-15T07:35:06;9.00;99.90
6988;DHT22;3534;49.960;8.018;2023-04-15T07:37:34;9.10;99.90
6988;DHT22;3534;49.960;8.018;2023-04-15T07:40:01;9.30;99.90
6988;DHT22;3534;49.960;8.018;2023-04-15T07:42:29;9.30;99.90
6988;DHT22;3534;49.960;8.018;2023-04-15T07:44:57;9.40;99.90
6988;DHT22;3534;49.960;8.018;2023-04-15T07:47:23;9.40;99.90
6988;DHT22;3534;49.960;8.018;2023-04-15T07:49:51;9.50;99.90
6988;DHT22;3534;49.960;8.018;2023-04-15T07:52:18;9.60;99.90
6988;DHT22;3534;49.960;8.018;2023-04-15T07:54:45;9.60;99.90
6988;DHT22;3534;49.960;8.018;2023-04-15T07:57:12;9.70;99.90
6988;DHT22;3534;49.960;8.018;2023-04-15T07:59:38;9.70;99.90
6988;DHT22;3534;49.960;8.018;2023-04-15T08:02:07;9.80;99.90
6988;DHT22;3534;49.960;8.018;2023-04-15T08:04:34;9.90;99.90
6988;DHT22;3534;49.960;8.018;2023-04-15T08:07:00;10.00;99.90
6988;DHT22;3534;49.960;8.018;2023-04-15T08:09:28;10.10;99.90
6988;DHT22;3534;49.960;8.018;2023-04-15T08:11:55;10.20;99.90
6988;DHT22;3534;49.960;8.018;2023-04-15T08:14:22;10.40;99.90
6988;DHT22;3534;49.960;8.018;2023-04-15T08:16:49;10.40;99.90
6988;DHT22;3534;49.960;8.018;2023-04-15T08:19:18;10.50;99.90
6988;DHT22;3534;49.960;8.018;2023-04-15T08:21:45;10.60;99.90
6988;DHT22;3534;49.960;8.018;2023-04-15T08:24:11;10.70;99.90
6988;DHT22;3534;49.960;8.018;2023-04-15T08:26:38;10.90;99.90
6988;DHT22;3534;49.960;8.018;2023-04-15T08:29:06;11.00;99.90
6988;DHT22;3534;49.960;8.018;2023-04-15T08:31:33;11.10;99.90
6988;DHT22;3534;49.960;8.018;2023-04-15T08:34:00;11.10;99.90
6988;DHT22;3534;49.960;8.018;2023-04-15T08:36:28;11.10;99.90
6988;DHT22;3534;49.960;8.018;2023-04-15T08:38:55;11.20;99.90
6988;DHT22;3534;49.960;8.018;2023-04-15T08:41:22;11.30;99.90
6988;DHT22;3534;49.960;8.018;2023-04-15T08:43:53;11.40;99.90
6988;DHT22;3534;49.960;8.018;2023-04-15T08:46:20;11.50;99.90
6988;DHT22;3534;49.960;8.018;2023-04-15T08:48:48;11.60;99.90
6988;DHT22;3534;49.960;8.018;2023-04-15T08:51:15;11.60;99.90
6988;DHT22;3534;49.960;8.018;2023-04-15T08:53:44;11.70;99.90
6988;DHT22;3534;49.960;8.018;2023-04-15T08:56:13;11.90;99.90
6988;DHT22;3534;49.960;8.018;2023-04-15T08:58:40;12.00;99.90
6988;DHT22;3534;49.960;8.018;2023-04-15T09:01:07;12.10;99.90
6988;DHT22;3534;49.960;8.018;2023-04-15T09:03:34;12.20;99.90
6988;DHT22;3534;49.960;8.018;2023-04-15T09:06:03;12.30;99.90
6988;DHT22;3534;49.960;8.018;2023-04-15T09:08:30;12.50;99.90
6988;DHT22;3534;49.960;8.018;2023-04-15T09:10:58;12.60;99.90
6988;DHT22;3534;49.960;8.018;2023-04-15T09:13:25;12.70;99.90
6988;DHT22;3534;49.960;8.018;2023-04-15T09:15:52;12.80;99.90
6988;DHT22;3534;49.960;8.018;2023-04-15T09:18:29;12.90;99.90
6988;DHT22;3534;49.960;8.018;2023-04-15T09:21:03;13.00;99.90
6988;DHT22;3534;49.960;8.018;2023-04-15T09:23:31;13.20;99.90
6988;DHT22;3534;49.960;8.018;2023-04-15T09:25:59;13.30;99.90
6988;DHT22;3534;49.960;8.018;2023-04-15T09:28:26;13.40;99.90
6988;DHT22;3534;49.960;8.018;2023-04-15T09:30:57;13.50;99.90
6988;DHT22;3534;49.960;8.018;2023-04-15T09:33:24;13.60;99.90
6988;DHT22;3534;49.960;8.018;2023-04-15T09:35:59;13.70;99.90
6988;DHT22;3534;49.960;8.018;2023-04-15T09:38:26;13.80;99.90
6988;DHT22;3534;49.960;8.018;2023-04-15T09:40:53;13.90;99.90
6988;DHT22;3534;49.960;8.018;2023-04-15T09:43:22;13.90;99.90
6988;DHT22;3534;49.960;8.018;2023-04-15T09:45:52;14.00;99.90
6988;DHT22;3534;49.960;8.018;2023-04-15T09:48:21;14.00;99.90
6988;DHT22;3534;49.960;8.018;2023-04-15T09:50:48;14.10;99.90
6988;DHT22;3534;49.960;8.018;2023-04-15T09:53:16;14.10;99.90
6988;DHT22;3534;49.960;8.018;2023-04-15T09:55:45;14.20;99.90
6988;DHT22;3534;49.960;8.018;2023-04-15T09:58:17;14.40;99.90
6988;DHT22;3534;49.960;8.018;2023-04-15T10:00:47;14.40;99.90
6988;DHT22;3534;49.960;8.018;2023-04-15T10:03:18;14.50;99.90
6988;DHT22;3534;49.960;8.018;2023-04-15T10:05:47;14.60;99.90
6988;DHT22;3534;49.960;8.018;2023-04-15T10:08:16;14.70;99.90
6988;DHT22;3534;49.960;8.018;2023-04-15T10:10:44;14.80;99.90
6988;DHT22;3534;49.960;8.018;2023-04-15T10:13:12;14.90;99.90
6988;DHT22;3534;49.960;8.018;2023-04-15T10:15:40;15.00;99.90
6988;DHT22;3534;49.960;8.018;2023-04-15T10:18:10;15.10;99.90
6988;DHT22;3534;49.960;8.018;2023-04-15T10:20:39;15.10;99.90
6988;DHT22;3534;49.960;8.018;2023-04-15T10:23:07;15.20;99.90
6988;DHT22;3534;49.960;8.018;2023-04-15T10:25:35;15.20;99.90
6988;DHT22;3534;49.960;8.018;2023-04-15T10:28:03;15.10;99.90
6988;DHT22;3534;49.960;8.018;2023-04-15T10:30:31;15.20;99.90
6988;DHT22;3534;49.960;8.018;2023-04-15T10:32:58;15.20;99.90
6988;DHT22;3534;49.960;8.018;2023-04-15T10:35:27;15.30;99.90
6988;DHT22;3534;49.960;8.018;2023-04-15T10:37:55;15.40;99.00
6988;DHT22;3534;49.960;8.018;2023-04-15T10:40:27;15.50;99.00
6988;DHT22;3534;49.960;8.018;2023-04-15T10:42:56;15.50;97.80
6988;DHT22;3534;49.960;8.018;2023-04-15T10:45:25;15.60;98.40
6988;DHT22;3534;49.960;8.018;2023-04-15T10:47:54;15.60;97.80
6988;DHT22;3534;49.960;8.018;2023-04-15T10:50:21;15.70;97.50
6988;DHT22;3534;49.960;8.018;2023-04-15T10:52:52;15.80;97.30
6988;DHT22;3534;49.960;8.018;2023-04-15T10:55:21;15.80;97.60
6988;DHT22;3534;49.960;8.018;2023-04-15T10:57:51;15.90;97.50
6988;DHT22;3534;49.960;8.018;2023-04-15T11:00:20;16.00;92.50
6988;DHT22;3534;49.960;8.018;2023-04-15T11:02:52;16.00;91.00
6988;DHT22;3534;49.960;8.018;2023-04-15T11:05:20;16.10;91.10
6988;DHT22;3534;49.960;8.018;2023-04-15T11:07:53;16.20;90.10
6988;DHT22;3534;49.960;8.018;2023-04-15T11:10:51;16.30;96.50
6988;DHT22;3534;49.960;8.018;2023-04-15T11:13:23;16.40;92.60
6988;DHT22;3534;49.960;8.018;2023-04-15T11:15:55;16.50;99.90
6988;DHT22;3534;49.960;8.018;2023-04-15T11:18:24;16.50;96.00
6988;DHT22;3534;49.960;8.018;2023-04-15T11:20:52;16.40;99.90
6988;DHT22;3534;49.960;8.018;2023-04-15T11:23:28;16.40;99.10
6988;DHT22;3534;49.960;8.018;2023-04-15T11:25:55;16.40;99.90
6988;DHT22;3534;49.960;8.018;2023-04-15T11:28:25;16.40;99.90
6988;DHT22;3534;49.960;8.018;2023-04-15T11:30:51;16.40;95.90
6988;DHT22;3534;49.960;8.018;2023-04-15T11:33:20;16.40;99.90
6988;DHT22;3534;49.960;8.018;2023-04-15T11:35:48;16.20;97.80
6988;DHT22;3534;49.960;8.018;2023-04-15T11:38:15;16.10;95.70
6988;DHT22;3534;49.960;8.018;2023-04-15T11:40:44;16.20;99.90
6988;DHT22;3534;49.960;8.018;2023-04-15T11:43:12;16.00;93.00
6988;DHT22;3534;49.960;8.018;2023-04-15T11:45:49;16.00;90.50
6988;DHT22;3534;49.960;8.018;2023-04-15T11:48:17;15.90;92.70
6988;DHT22;3534;49.960;8.018;2023-04-15T11:50:44;15.90;95.70
6988;DHT22;3534;49.960;8.018;2023-04-15T11:53:12;16.00;99.90
6988;DHT22;3534;49.960;8.018;2023-04-15T11:55:44;16.10;99.90
6988;DHT22;3534;49.960;8.018;2023-04-15T11:58:13;16.30;99.90
6988;DHT22;3534;49.960;8.018;2023-04-15T12:00:44;16.40;99.90
6988;DHT22;3534;49.960;8.018;2023-04-15T12:03:13;16.50;99.90
6988;DHT22;3534;49.960;8.018;2023-04-15T12:06:05;16.50;98.30
6988;DHT22;3534;49.960;8.018;2023-04-15T12:08:48;16.60;99.90
6988;DHT22;3534;49.960;8.018;2023-04-15T12:11:16;16.70;99.70
6988;DHT22;3534;49.960;8.018;2023-04-15T12:13:44;16.60;99.90
6988;DHT22;3534;49.960;8.018;2023-04-15T12:16:11;16.60;99.90
6988;DHT22;3534;49.960;8.018;2023-04-15T12:18:37;16.50;99.90
6988;DHT22;3534;49.960;8.018;2023-04-15T12:21:08;16.30;99.90
6988;DHT22;3534;49.960;8.018;2023-04-15T12:23:36;16.30;99.90
6988;DHT22;3534;49.960;8.018;2023-04-15T12:26:04;16.30;99.90
6988;DHT22;3534;49.960;8.018;2023-04-15T12:28:33;16.30;99.90
6988;DHT22;3534;49.960;8.018;2023-04-15T12:31:06;16.50;99.90
6988;DHT22;3534;49.960;8.018;2023-04-15T12:33:33;16.60;99.90
6988;DHT22;3534;49.960;8.018;2023-04-15T12:35:59;16.70;99.90
6988;DHT22;3534;49.960;8.018;2023-04-15T12:38:26;16.80;99.90
6988;DHT22;3534;49.960;8.018;2023-04-15T12:40:53;16.90;99.90
6988;DHT22;3534;49.960;8.018;2023-04-15T12:43:19;17.00;99.90
6988;DHT22;3534;49.960;8.018;2023-04-15T12:45:47;17.00;99.90
6988;DHT22;3534;49.960;8.018;2023-04-15T12:48:14;17.00;99.90
6988;DHT22;3534;49.960;8.018;2023-04-15T12:50:41;17.00;99.90
6988;DHT22;3534;49.960;8.018;2023-04-15T12:53:07;16.90;99.90
6988;DHT22;3534;49.960;8.018;2023-04-15T12:55:34;16.90;99.90
6988;DHT22;3534;49.960;8.018;2023-04-15T12:58:01;16.70;99.90
6988;DHT22;3534;49.960;8.018;2023-04-15T13:00:28;16.60;99.90
6988;DHT22;3534;49.960;8.018;2023-04-15T13:02:56;16.60;99.90
6988;DHT22;3534;49.960;8.018;2023-04-15T13:05:22;16.60;99.90
6988;DHT22;3534;49.960;8.018;2023-04-15T13:07:49;16.60;99.90
6988;DHT22;3534;49.960;8.018;2023-04-15T13:10:16;16.60;99.90
6988;DHT22;3534;49.960;8.018;2023-04-15T13:12:42;16.60;99.90
6988;DHT22;3534;49.960;8.018;2023-04-15T13:15:11;16.60;99.90
6988;DHT22;3534;49.960;8.018;2023-04-15T13:17:38;16.50;99.90
6988;DHT22;3534;49.960;8.018;2023-04-15T13:20:06;16.50;99.90
6988;DHT22;3534;49.960;8.018;2023-04-15T13:22:34;16.40;99.90
6988;DHT22;3534;49.960;8.018;2023-04-15T13:25:00;16.30;99.90
6988;DHT22;3534;49.960;8.018;2023-04-15T13:27:27;16.20;99.90
6988;DHT22;3534;49.960;8.018;2023-04-15T13:29:54;16.10;99.90
6988;DHT22;3534;49.960;8.018;2023-04-15T13:32:21;16.20;99.90
6988;DHT22;3534;49.960;8.018;2023-04-15T13:34:48;16.20;99.90
6988;DHT22;3534;49.960;8.018;2023-04-15T13:37:16;16.30;99.90
6988;DHT22;3534;49.960;8.018;2023-04-15T13:39:43;16.30;99.90
6988;DHT22;3534;49.960;8.018;2023-04-15T13:42:10;16.30;99.90
6988;DHT22;3534;49.960;8.018;2023-04-15T13:44:36;16.40;99.90
6988;DHT22;3534;49.960;8.018;2023-04-15T13:47:04;16.30;99.90
6988;DHT22;3534;49.960;8.018;2023-04-15T13:49:31;16.30;99.90
6988;DHT22;3534;49.960;8.018;2023-04-15T13:51:57;16.20;99.90
6988;DHT22;3534;49.960;8.018;2023-04-15T13:54:25;16.20;99.90
6988;DHT22;3534;49.960;8.018;2023-04-15T13:56:53;16.10;99.90
6988;DHT22;3534;49.960;8.018;2023-04-15T13:59:21;16.00;99.90
6988;DHT22;3534;49.960;8.018;2023-04-15T14:01:47;15.80;99.90
6988;DHT22;3534;49.960;8.018;2023-04-15T14:04:14;15.80;99.90
6988;DHT22;3534;49.960;8.018;2023-04-15T14:06:41;15.70;99.90
6988;DHT22;3534;49.960;8.018;2023-04-15T14:09:08;15.60;99.90
6988;DHT22;3534;49.960;8.018;2023-04-15T14:11:37;15.60;99.90
6988;DHT22;3534;49.960;8.018;2023-04-15T14:14:04;15.70;99.90
6988;DHT22;3534;49.960;8.018;2023-04-15T14:16:31;15.60;99.90
6988;DHT22;3534;49.960;8.018;2023-04-15T14:18:58;15.60;99.90
6988;DHT22;3534;49.960;8.018;2023-04-15T14:21:25;15.30;99.90
6988;DHT22;3534;49.960;8.018;2023-04-15T14:23:52;15.00;99.90
6988;DHT22;3534;49.960;8.018;2023-04-15T14:26:19;15.10;99.90
6988;DHT22;3534;49.960;8.018;2023-04-15T14:28:47;15.00;99.90
6988;DHT22;3534;49.960;8.018;2023-04-15T14:31:13;15.10;99.90
6988;DHT22;3534;49.960;8.018;2023-04-15T14:33:40;15.10;99.90
6988;DHT22;3534;49.960;8.018;2023-04-15T14:36:08;15.20;99.90
6988;DHT22;3534;49.960;8.018;2023-04-15T14:38:34;14.90;99.90
6988;DHT22;3534;49.960;8.018;2023-04-15T14:41:02;14.60;99.90
6988;DHT22;3534;49.960;8.018;2023-04-15T14:43:29;14.60;99.90
6988;DHT22;3534;49.960;8.018;2023-04-15T14:45:57;14.40;99.90
6988;DHT22;3534;49.960;8.018;2023-04-15T14:48:24;14.40;99.90
6988;DHT22;3534;49.960;8.018;2023-04-15T14:50:51;14.50;99.90
6988;DHT22;3534;49.960;8.018;2023-04-15T14:53:18;14.50;99.90
6988;DHT22;3534;49.960;8.018;2023-04-15T14:55:44;14.50;99.90
6988;DHT22;3534;49.960;8.018;2023-04-15T14:58:11;14.40;99.90
6988;DHT22;3534;49.960;8.018;2023-04-15T15:00:38;14.30;99.90
6988;DHT22;3534;49.960;8.018;2023-04-15T15:03:08;14.20;99.90
6988;DHT22;3534;49.960;8.018;2023-04-15T15:05:37;14.30;99.90
6988;DHT22;3534;49.960;8.018;2023-04-15T15:08:05;14.30;99.90
6988;DHT22;3534;49.960;8.018;2023-04-15T15:10:33;14.30;99.90
6988;DHT22;3534;49.960;8.018;2023-04-15T15:13:01;14.20;99.90
6988;DHT22;3534;49.960;8.018;2023-04-15T15:15:28;14.10;99.90
6988;DHT22;3534;49.960;8.018;2023-04-15T15:17:55;14.10;99.90
6988;DHT22;3534;49.960;8.018;2023-04-15T15:20:23;14.10;99.90
6988;DHT22;3534;49.960;8.018;2023-04-15T15:22:50;14.10;99.90
6988;DHT22;3534;49.960;8.018;2023-04-15T15:25:17;14.00;99.90
6988;DHT22;3534;49.960;8.018;2023-04-15T15:27:44;13.80;99.90
6988;DHT22;3534;49.960;8.018;2023-04-15T15:30:11;13.60;99.90
6988;DHT22;3534;49.960;8.018;2023-04-15T15:32:38;13.40;99.90
6988;DHT22;3534;49.960;8.018;2023-04-15T15:35:06;13.30;99.90
6988;DHT22;3534;49.960;8.018;2023-04-15T15:37:34;13.20;99.90
6988;DHT22;3534;49.960;8.018;2023-04-15T15:40:01;13.20;99.90
6988;DHT22;3534;49.960;8.018;2023-04-15T15:42:30;13.10;99.90
6988;DHT22;3534;49.960;8.018;2023-04-15T15:44:57;13.20;99.90
6988;DHT22;3534;49.960;8.018;2023-04-15T15:47:24;13.20;99.90
6988;DHT22;3534;49.960;8.018;2023-04-15T15:49:51;13.30;99.90
6988;DHT22;3534;49.960;8.018;2023-04-15T15:52:18;13.10;99.90
6988;DHT22;3534;49.960;8.018;2023-04-15T15:54:46;13.00;99.90
6988;DHT22;3534;49.960;8.018;2023-04-15T15:57:13;12.90;99.90
6988;DHT22;3534;49.960;8.018;2023-04-15T15:59:40;12.80;99.90
6988;DHT22;3534;49.960;8.018;2023-04-15T16:02:09;12.70;99.90
6988;DHT22;3534;49.960;8.018;2023-04-15T16:04:36;12.80;99.90
6988;DHT22;3534;49.960;8.018;2023-04-15T16:07:04;12.70;99.90
6988;DHT22;3534;49.960;8.018;2023-04-15T16:09:31;12.80;99.90
6988;DHT22;3534;49.960;8.018;2023-04-15T16:11:59;12.90;99.90